sensor_id;sensor_type;location;lat;lon;timestamp;pressure;altitude;pressure_sealevel;temperature;humidity
43488;BME280;29078;41.932;25.554;2024-01-07T00:01:38;98359.06;;;11.72;78.84
43488;BME280;29078;41.932;25.554;2024-01-07T00:04:03;98369.19;;;11.75;77.78
43488;BME280;29078;41.932;25.554;2024-01-07T00:06:29;98377.13;;;11.75;79.70
43488;BME280;29078;41.932;25.554;2024-01-07T00:08:54;98381.41;;;11.76;78.61
43488;BME280;29078;41.932;25.554;2024-01-07T00:11:19;98397.88;;;11.78;80.08
43488;BME280;29078;41.932;25.554;2024-01-07T00:13:45;98354.56;;;11.79;79.13
43488;BME280;29078;41.932;25.554;2024-01-07T00:16:10;98348.84;;;11.82;80.45
43488;BME280;29078;41.932;25.554;2024-01-07T00:18:35;98367.50;;;11.87;74.33
43488;BME280;29078;41.932;25.554;2024-01-07T00:21:00;98359.56;;;11.87;78.92
43488;BME280;29078;41.932;25.554;2024-01-07T00:23:26;98379.09;;;11.93;77.35
43488;BME280;29078;41.932;25.554;2024-01-07T00:25:51;98382.13;;;11.96;78.38
43488;BME280;29078;41.932;25.554;2024-01-07T00:28:16;98369.28;;;12.00;79.11
43488;BME280;29078;41.932;25.554;2024-01-07T00:30:41;98373.09;;;12.04;75.77
43488;BME280;29078;41.932;25.554;2024-01-07T00:33:07;98373.50;;;12.07;75.89
43488;BME280;29078;41.932;25.554;2024-01-07T00:35:32;98352.69;;;12.11;75.98
43488;BME280;29078;41.932;25.554;2024-01-07T00:37:57;98349.41;;;12.16;79.01
43488;BME280;29078;41.932;25.554;2024-01-07T00:40:23;98342.88;;;12.18;78.29
43488;BME280;29078;41.932;25.554;2024-01-07T00:42:49;98353.22;;;12.20;79.35
43488;BME280;29078;41.932;25.554;2024-01-07T00:45:14;98348.53;;;12.22;80.57
43488;BME280;29078;41.932;25.554;2024-01-07T00:47:39;98322.88;;;12.22;78.53
43488;BME280;29078;41.932;25.554;2024-01-07T00:50:04;98324.94;;;12.20;79.44
43488;BME280;29078;41.932;25.554;2024-01-07T00:52:30;98336.31;;;12.21;79.26
43488;BME280;29078;41.932;25.554;2024-01-07T00:54:55;98319.41;;;12.22;79.41
43488;BME280;29078;41.932;25.554;2024-01-07T00:57:20;98306.19;;;12.22;77.78
43488;BME280;29078;41.932;25.554;2024-01-07T00:59:46;98284.22;;;12.21;80.70
43488;BME280;29078;41.932;25.554;2024-01-07T01:02:11;98275.25;;;12.22;78.69
43488;BME280;29078;41.932;25.554;2024-01-07T01:04:38;98269.16;;;12.22;79.39
43488;BME280;29078;41.932;25.554;2024-01-07T01:07:03;98269.94;;;12.22;77.12
43488;BME280;29078;41.932;25.554;2024-01-07T01:09:28;98284.44;;;12.20;78.16
43488;BME280;29078;41.932;25.554;2024-01-07T01:11:54;98298.09;;;12.17;80.05
43488;BME280;29078;41.932;25.554;2024-01-07T01:14:19;98284.88;;;12.17;81.99
43488;BME280;29078;41.932;25.554;2024-01-07T01:16:45;98273.25;;;12.18;82.30
43488;BME280;29078;41.932;25.554;2024-01-07T01:19:10;98266.34;;;12.17;80.96
43488;BME280;29078;41.932;25.554;2024-01-07T01:21:35;98263.69;;;12.17;79.56
43488;BME280;29078;41.932;25.554;2024-01-07T01:24:00;98252.31;;;12.16;79.33
43488;BME280;29078;41.932;25.554;2024-01-07T01:26:26;98229.16;;;12.12;82.23
43488;BME280;29078;41.932;25.554;2024-01-07T01:28:51;98255.25;;;12.08;83.00
43488;BME280;29078;41.932;25.554;2024-01-07T01:31:16;98230.41;;;12.09;81.67
43488;BME280;29078;41.932;25.554;2024-01-07T01:33:41;98217.75;;;12.11;79.23
43488;BME280;29078;41.932;25.554;2024-01-07T01:36:07;98209.03;;;12.11;79.40
43488;BME280;29078;41.932;25.554;2024-01-07T01:38:32;98202.31;;;12.08;80.09
43488;BME280;29078;41.932;25.554;2024-01-07T01:40:58;98167.78;;;12.03;81.22
43488;BME280;29078;41.932;25.554;2024-01-07T01:43:24;98176.75;;;12.02;81.23
43488;BME280;29078;41.932;25.554;2024-01-07T01:45:49;98166.47;;;11.94;82.01
43488;BME280;29078;41.932;25.554;2024-01-07T01:48:14;98175.22;;;11.94;81.75
43488;BME280;29078;41.932;25.554;2024-01-07T01:50:40;98174.44;;;11.87;82.52
43488;BME280;29078;41.932;25.554;2024-01-07T01:53:05;98148.00;;;11.87;82.56
43488;BME280;29078;41.932;25.554;2024-01-07T01:55:30;98145.34;;;11.87;83.96
43488;BME280;29078;41.932;25.554;2024-01-07T01:57:56;98146.78;;;11.90;81.45
43488;BME280;29078;41.932;25.554;2024-01-07T02:00:24;98144.31;;;11.88;81.69
43488;BME280;29078;41.932;25.554;2024-01-07T02:02:50;98139.84;;;11.89;81.91
43488;BME280;29078;41.932;25.554;2024-01-07T02:05:15;98131.09;;;11.88;82.29
43488;BME280;29078;41.932;25.554;2024-01-07T02:07:40;98130.09;;;11.89;82.35
43488;BME280;29078;41.932;25.554;2024-01-07T02:10:06;98121.19;;;11.84;83.41
43488;BME280;29078;41.932;25.554;2024-01-07T02:12:31;98121.78;;;11.86;83.68
43488;BME280;29078;41.932;25.554;2024-01-07T02:14:56;98113.63;;;11.87;84.07
43488;BME280;29078;41.932;25.554;2024-01-07T02:17:22;98104.66;;;11.88;83.95
43488;BME280;29078;41.932;25.554;2024-01-07T02:19:47;98094.69;;;11.90;84.62
43488;BME280;29078;41.932;25.554;2024-01-07T02:22:12;98071.69;;;11.91;83.59
43488;BME280;29078;41.932;25.554;2024-01-07T02:24:37;98047.91;;;11.91;84.18
43488;BME280;29078;41.932;25.554;2024-01-07T02:27:03;98010.06;;;11.90;84.40
43488;BME280;29078;41.932;25.554;2024-01-07T02:29:28;98014.31;;;11.91;82.22
43488;BME280;29078;41.932;25.554;2024-01-07T02:31:54;98003.16;;;11.89;83.24
43488;BME280;29078;41.932;25.554;2024-01-07T02:34:19;97992.13;;;11.92;83.14
43488;BME280;29078;41.932;25.554;2024-01-07T02:36:44;97958.78;;;11.91;82.57
43488;BME280;29078;41.932;25.554;2024-01-07T02:39:10;97957.75;;;11.92;82.03
43488;BME280;29078;41.932;25.554;2024-01-07T02:41:35;97969.13;;;11.93;81.69
43488;BME280;29078;41.932;25.554;2024-01-07T02:44:00;97962.00;;;11.93;81.59
43488;BME280;29078;41.932;25.554;2024-01-07T02:46:26;97963.41;;;11.96;81.66
43488;BME280;29078;41.932;25.554;2024-01-07T02:48:51;97954.19;;;11.98;82.22
43488;BME280;29078;41.932;25.554;2024-01-07T02:51:16;97943.41;;;12.00;82.36
43488;BME280;29078;41.932;25.554;2024-01-07T02:53:41;97947.66;;;12.01;82.35
43488;BME280;29078;41.932;25.554;2024-01-07T02:56:07;97928.91;;;12.02;82.78
43488;BME280;29078;41.932;25.554;2024-01-07T02:58:33;97937.88;;;12.01;83.01
43488;BME280;29078;41.932;25.554;2024-01-07T03:00:59;97940.75;;;12.00;80.92
43488;BME280;29078;41.932;25.554;2024-01-07T03:03:24;97932.00;;;11.99;81.73
43488;BME280;29078;41.932;25.554;2024-01-07T03:05:49;97917.16;;;11.98;81.72
43488;BME280;29078;41.932;25.554;2024-01-07T03:08:14;97924.06;;;11.99;82.96
43488;BME280;29078;41.932;25.554;2024-01-07T03:10:40;97933.63;;;12.00;82.06
43488;BME280;29078;41.932;25.554;2024-01-07T03:13:05;97923.03;;;12.00;81.09
43488;BME280;29078;41.932;25.554;2024-01-07T03:15:30;97956.97;;;12.03;79.85
43488;BME280;29078;41.932;25.554;2024-01-07T03:17:57;97947.19;;;12.04;79.90
43488;BME280;29078;41.932;25.554;2024-01-07T03:20:22;97958.38;;;12.06;80.48
43488;BME280;29078;41.932;25.554;2024-01-07T03:22:47;97949.97;;;12.09;80.77
43488;BME280;29078;41.932;25.554;2024-01-07T03:25:12;97954.69;;;12.07;82.27
43488;BME280;29078;41.932;25.554;2024-01-07T03:27:38;97961.25;;;12.16;82.21
43488;BME280;29078;41.932;25.554;2024-01-07T03:30:04;97942.50;;;12.18;82.55
43488;BME280;29078;41.932;25.554;2024-01-07T03:32:29;97946.31;;;12.22;83.05
43488;BME280;29078;41.932;25.554;2024-01-07T03:34:54;97949.22;;;12.32;82.96
43488;BME280;29078;41.932;25.554;2024-01-07T03:37:20;97956.56;;;12.30;83.10
43488;BME280;29078;41.932;25.554;2024-01-07T03:39:46;97967.19;;;12.41;81.50
43488;BME280;29078;41.932;25.554;2024-01-07T03:42:11;97959.25;;;12.41;80.59
43488;BME280;29078;41.932;25.554;2024-01-07T03:44:37;97970.53;;;12.49;79.54
43488;BME280;29078;41.932;25.554;2024-01-07T03:47:03;97969.13;;;12.46;78.64
43488;BME280;29078;41.932;25.554;2024-01-07T03:49:28;97996.06;;;12.43;78.13
43488;BME280;29078;41.932;25.554;2024-01-07T03:51:53;97996.75;;;12.38;77.13
43488;BME280;29078;41.932;25.554;2024-01-07T03:54:19;97987.75;;;12.28;77.02
43488;BME280;29078;41.932;25.554;2024-01-07T03:56:44;97976.13;;;12.29;77.19
43488;BME280;29078;41.932;25.554;2024-01-07T03:59:09;97950.22;;;12.19;76.89
43488;BME280;29078;41.932;25.554;2024-01-07T04:01:34;97932.16;;;12.16;76.83
43488;BME280;29078;41.932;25.554;2024-01-07T04:04:00;97936.06;;;12.14;76.50
43488;BME280;29078;41.932;25.554;2024-01-07T04:06:25;97931.91;;;12.06;76.90
43488;BME280;29078;41.932;25.554;2024-01-07T04:08:50;97944.34;;;12.05;76.63
43488;BME280;29078;41.932;25.554;2024-01-07T04:11:15;97980.78;;;12.03;76.25
43488;BME280;29078;41.932;25.554;2024-01-07T04:13:41;97988.13;;;12.01;76.27
43488;BME280;29078;41.932;25.554;2024-01-07T04:16:14;97993.28;;;11.96;75.68
43488;BME280;29078;41.932;25.554;2024-01-07T04:18:40;97991.91;;;11.94;75.31
43488;BME280;29078;41.932;25.554;2024-01-07T04:21:08;97974.66;;;11.91;75.69
43488;BME280;29078;41.932;25.554;2024-01-07T04:23:33;97981.38;;;11.87;75.53
43488;BME280;29078;41.932;25.554;2024-01-07T04:25:59;97966.19;;;11.83;74.83
43488;BME280;29078;41.932;25.554;2024-01-07T04:28:24;97955.25;;;11.79;74.75
43488;BME280;29078;41.932;25.554;2024-01-07T04:30:49;97959.34;;;11.75;75.11
43488;BME280;29078;41.932;25.554;2024-01-07T04:33:15;97967.88;;;11.77;74.08
43488;BME280;29078;41.932;25.554;2024-01-07T04:35:40;97978.16;;;11.67;74.45
43488;BME280;29078;41.932;25.554;2024-01-07T04:38:06;97981.19;;;11.70;74.13
43488;BME280;29078;41.932;25.554;2024-01-07T04:40:31;97969.22;;;11.68;73.74
43488;BME280;29078;41.932;25.554;2024-01-07T04:42:56;97957.47;;;11.64;73.81
43488;BME280;29078;41.932;25.554;2024-01-07T04:45:21;97945.72;;;11.60;73.78
43488;BME280;29078;41.932;25.554;2024-01-07T04:47:47;97940.88;;;11.57;73.17
43488;BME280;29078;41.932;25.554;2024-01-07T04:50:12;97927.69;;;11.57;73.75
43488;BME280;29078;41.932;25.554;2024-01-07T04:52:40;97911.09;;;11.50;73.33
43488;BME280;29078;41.932;25.554;2024-01-07T04:55:05;97919.25;;;11.48;72.86
43488;BME280;29078;41.932;25.554;2024-01-07T04:57:30;97910.06;;;11.51;73.58
43488;BME280;29078;41.932;25.554;2024-01-07T04:59:56;97924.41;;;11.43;72.76
43488;BME280;29078;41.932;25.554;2024-01-07T05:02:21;97926.59;;;11.46;73.19
43488;BME280;29078;41.932;25.554;2024-01-07T05:04:46;97919.03;;;11.50;72.92
43488;BME280;29078;41.932;25.554;2024-01-07T05:07:12;97925.56;;;11.47;72.78
43488;BME280;29078;41.932;25.554;2024-01-07T05:09:37;97928.06;;;11.42;72.71
43488;BME280;29078;41.932;25.554;2024-01-07T05:12:02;97941.72;;;11.39;72.43
43488;BME280;29078;41.932;25.554;2024-01-07T05:14:27;97953.78;;;11.35;72.75
43488;BME280;29078;41.932;25.554;2024-01-07T05:16:53;97962.72;;;11.34;72.87
43488;BME280;29078;41.932;25.554;2024-01-07T05:19:19;97955.16;;;11.37;72.50
43488;BME280;29078;41.932;25.554;2024-01-07T05:21:44;97956.78;;;11.38;72.60
43488;BME280;29078;41.932;25.554;2024-01-07T05:24:10;97965.50;;;11.39;72.42
43488;BME280;29078;41.932;25.554;2024-01-07T05:26:41;97958.84;;;11.36;71.84
43488;BME280;29078;41.932;25.554;2024-01-07T05:29:07;97961.69;;;11.35;71.97
43488;BME280;29078;41.932;25.554;2024-01-07T05:31:32;97944.66;;;11.31;72.37
43488;BME280;29078;41.932;25.554;2024-01-07T05:33:57;97951.56;;;11.32;72.04
43488;BME280;29078;41.932;25.554;2024-01-07T05:36:23;97975.13;;;11.33;72.76
43488;BME280;29078;41.932;25.554;2024-01-07T05:38:48;97974.09;;;11.34;72.18
43488;BME280;29078;41.932;25.554;2024-01-07T05:41:13;97979.38;;;11.34;73.10
43488;BME280;29078;41.932;25.554;2024-01-07T05:43:39;97981.44;;;11.32;72.85
43488;BME280;29078;41.932;25.554;2024-01-07T05:46:04;97974.53;;;11.31;73.25
43488;BME280;29078;41.932;25.554;2024-01-07T05:48:29;97969.25;;;11.31;72.67
43488;BME280;29078;41.932;25.554;2024-01-07T05:50:54;97971.91;;;11.31;72.61
43488;BME280;29078;41.932;25.554;2024-01-07T05:53:20;97965.81;;;11.31;72.88
43488;BME280;29078;41.932;25.554;2024-01-07T05:55:45;97957.53;;;11.27;73.10
43488;BME280;29078;41.932;25.554;2024-01-07T05:58:10;97962.22;;;11.25;73.05
43488;BME280;29078;41.932;25.554;2024-01-07T06:00:35;97965.53;;;11.21;73.27
43488;BME280;29078;41.932;25.554;2024-01-07T06:03:01;97953.78;;;11.17;72.94
43488;BME280;29078;41.932;25.554;2024-01-07T06:05:26;97951.13;;;11.17;73.79
43488;BME280;29078;41.932;25.554;2024-01-07T06:07:52;97941.19;;;11.12;73.59
43488;BME280;29078;41.932;25.554;2024-01-07T06:10:17;97952.44;;;11.07;73.81
43488;BME280;29078;41.932;25.554;2024-01-07T06:12:42;97940.69;;;11.03;73.70
43488;BME280;29078;41.932;25.554;2024-01-07T06:15:08;97947.44;;;10.99;73.93
43488;BME280;29078;41.932;25.554;2024-01-07T06:17:33;97931.22;;;10.96;74.02
43488;BME280;29078;41.932;25.554;2024-01-07T06:19:59;97952.19;;;10.91;74.38
43488;BME280;29078;41.932;25.554;2024-01-07T06:22:24;97964.22;;;10.87;74.95
43488;BME280;29078;41.932;25.554;2024-01-07T06:24:49;97970.75;;;10.84;74.62
43488;BME280;29078;41.932;25.554;2024-01-07T06:27:14;97974.41;;;10.83;75.67
43488;BME280;29078;41.932;25.554;2024-01-07T06:29:40;97982.34;;;10.83;74.81
43488;BME280;29078;41.932;25.554;2024-01-07T06:32:05;97993.75;;;10.77;75.17
43488;BME280;29078;41.932;25.554;2024-01-07T06:34:30;97989.72;;;10.74;75.58
43488;BME280;29078;41.932;25.554;2024-01-07T06:36:56;97994.19;;;10.74;75.58
43488;BME280;29078;41.932;25.554;2024-01-07T06:39:21;97981.97;;;10.79;75.09
43488;BME280;29078;41.932;25.554;2024-01-07T06:41:46;97977.88;;;10.83;74.58
43488;BME280;29078;41.932;25.554;2024-01-07T06:44:11;97988.50;;;10.95;73.96
43488;BME280;29078;41.932;25.554;2024-01-07T06:46:37;97993.94;;;11.00;73.35
43488;BME280;29078;41.932;25.554;2024-01-07T06:49:02;97997.19;;;11.02;73.51
43488;BME280;29078;41.932;25.554;2024-01-07T06:51:27;98001.94;;;11.12;73.08
43488;BME280;29078;41.932;25.554;2024-01-07T06:53:53;97996.63;;;11.19;72.47
43488;BME280;29078;41.932;25.554;2024-01-07T06:56:18;97997.81;;;11.23;73.11
43488;BME280;29078;41.932;25.554;2024-01-07T06:58:43;97983.50;;;11.30;72.41
43488;BME280;29078;41.932;25.554;2024-01-07T07:01:09;97986.50;;;11.34;71.99
43488;BME280;29078;41.932;25.554;2024-01-07T07:03:34;97992.81;;;11.33;72.26
43488;BME280;29078;41.932;25.554;2024-01-07T07:05:59;97996.84;;;11.35;72.31
43488;BME280;29078;41.932;25.554;2024-01-07T07:08:24;97993.19;;;11.36;72.59
43488;BME280;29078;41.932;25.554;2024-01-07T07:10:50;97994.72;;;11.44;72.26
43488;BME280;29078;41.932;25.554;2024-01-07T07:13:15;97968.88;;;11.46;71.74
43488;BME280;29078;41.932;25.554;2024-01-07T07:15:40;97958.88;;;11.48;71.87
43488;BME280;29078;41.932;25.554;2024-01-07T07:18:05;97959.91;;;11.47;71.87
43488;BME280;29078;41.932;25.554;2024-01-07T07:20:31;97952.34;;;11.51;72.02
43488;BME280;29078;41.932;25.554;2024-01-07T07:22:56;97941.47;;;11.59;71.52
43488;BME280;29078;41.932;25.554;2024-01-07T07:25:22;97952.72;;;11.54;71.83
43488;BME280;29078;41.932;25.554;2024-01-07T07:27:47;97943.53;;;11.57;72.30
43488;BME280;29078;41.932;25.554;2024-01-07T07:30:12;97944.47;;;11.62;72.10
43488;BME280;29078;41.932;25.554;2024-01-07T07:32:40;97938.44;;;11.73;71.84
43488;BME280;29078;41.932;25.554;2024-01-07T07:35:09;97952.53;;;11.67;72.12
43488;BME280;29078;41.932;25.554;2024-01-07T07:37:34;97944.75;;;11.72;71.82
43488;BME280;29078;41.932;25.554;2024-01-07T07:39:59;97939.22;;;11.74;72.31
43488;BME280;29078;41.932;25.554;2024-01-07T07:42:25;97942.25;;;11.77;72.02
43488;BME280;29078;41.932;25.554;2024-01-07T07:44:50;97950.31;;;11.83;72.13
43488;BME280;29078;41.932;25.554;2024-01-07T07:47:15;97958.78;;;11.91;71.81
43488;BME280;29078;41.932;25.554;2024-01-07T07:49:41;97950.41;;;11.94;71.98
43488;BME280;29078;41.932;25.554;2024-01-07T07:52:07;97945.25;;;11.99;71.91
43488;BME280;29078;41.932;25.554;2024-01-07T07:54:32;97942.72;;;12.04;71.73
43488;BME280;29078;41.932;25.554;2024-01-07T07:56:58;97946.66;;;12.14;71.79
43488;BME280;29078;41.932;25.554;2024-01-07T07:59:23;97941.84;;;12.22;71.86
43488;BME280;29078;41.932;25.554;2024-01-07T08:01:48;97950.69;;;12.28;71.78
43488;BME280;29078;41.932;25.554;2024-01-07T08:04:14;97947.25;;;12.39;71.34
43488;BME280;29078;41.932;25.554;2024-01-07T08:06:39;97945.44;;;12.51;70.96
43488;BME280;29078;41.932;25.554;2024-01-07T08:09:05;97940.72;;;12.53;70.67
43488;BME280;29078;41.932;25.554;2024-01-07T08:11:30;97957.53;;;12.59;70.49
43488;BME280;29078;41.932;25.554;2024-01-07T08:13:55;97950.31;;;12.66;70.35
43488;BME280;29078;41.932;25.554;2024-01-07T08:16:22;97938.22;;;12.70;70.41
43488;BME280;29078;41.932;25.554;2024-01-07T08:18:47;97942.00;;;12.74;69.98
43488;BME280;29078;41.932;25.554;2024-01-07T08:21:13;97937.88;;;12.78;70.09
43488;BME280;29078;41.932;25.554;2024-01-07T08:23:38;97948.56;;;12.83;69.93
43488;BME280;29078;41.932;25.554;2024-01-07T08:26:04;97939.34;;;12.86;70.01
43488;BME280;29078;41.932;25.554;2024-01-07T08:28:29;97934.75;;;12.93;69.94
43488;BME280;29078;41.932;25.554;2024-01-07T08:30:54;97924.38;;;13.03;69.63
43488;BME280;29078;41.932;25.554;2024-01-07T08:33:21;97927.69;;;13.10;69.40
43488;BME280;29078;41.932;25.554;2024-01-07T08:35:46;97912.84;;;13.09;69.67
43488;BME280;29078;41.932;25.554;2024-01-07T08:38:11;97907.88;;;13.13;69.67
43488;BME280;29078;41.932;25.554;2024-01-07T08:40:37;97907.28;;;13.22;69.31
43488;BME280;29078;41.932;25.554;2024-01-07T08:43:02;97915.25;;;13.22;69.52
43488;BME280;29078;41.932;25.554;2024-01-07T08:45:27;97907.41;;;13.27;69.32
43488;BME280;29078;41.932;25.554;2024-01-07T08:47:53;97916.50;;;13.31;69.67
43488;BME280;29078;41.932;25.554;2024-01-07T08:50:18;97913.94;;;13.36;69.34
43488;BME280;29078;41.932;25.554;2024-01-07T08:52:43;97905.53;;;13.40;69.12
43488;BME280;29078;41.932;25.554;2024-01-07T08:55:08;97911.28;;;13.48;68.92
43488;BME280;29078;41.932;25.554;2024-01-07T08:57:35;97900.75;;;13.53;69.05
43488;BME280;29078;41.932;25.554;2024-01-07T09:00:01;97903.03;;;13.61;68.77
43488;BME280;29078;41.932;25.554;2024-01-07T09:02:27;97907.63;;;13.66;68.74
43488;BME280;29078;41.932;25.554;2024-01-07T09:04:52;97909.31;;;13.72;68.34
43488;BME280;29078;41.932;25.554;2024-01-07T09:07:17;97895.59;;;13.75;68.11
43488;BME280;29078;41.932;25.554;2024-01-07T09:09:44;97896.72;;;13.79;68.00
43488;BME280;29078;41.932;25.554;2024-01-07T09:12:09;97896.91;;;13.89;67.67
43488;BME280;29078;41.932;25.554;2024-01-07T09:14:34;97902.28;;;13.94;67.89
43488;BME280;29078;41.932;25.554;2024-01-07T09:17:02;97897.06;;;13.99;66.64
43488;BME280;29078;41.932;25.554;2024-01-07T09:19:27;97899.31;;;14.08;67.04
43488;BME280;29078;41.932;25.554;2024-01-07T09:21:53;97881.66;;;14.13;66.29
43488;BME280;29078;41.932;25.554;2024-01-07T09:24:18;97875.06;;;14.16;66.20
43488;BME280;29078;41.932;25.554;2024-01-07T09:26:43;97856.56;;;14.21;66.23
43488;BME280;29078;41.932;25.554;2024-01-07T09:29:09;97868.31;;;14.25;65.71
43488;BME280;29078;41.932;25.554;2024-01-07T09:31:35;97857.69;;;14.25;65.98
43488;BME280;29078;41.932;25.554;2024-01-07T09:34:01;97850.13;;;14.34;65.97
43488;BME280;29078;41.932;25.554;2024-01-07T09:36:27;97857.09;;;14.40;65.68
43488;BME280;29078;41.932;25.554;2024-01-07T09:38:52;97852.22;;;14.48;65.59
43488;BME280;29078;41.932;25.554;2024-01-07T09:41:18;97848.75;;;14.48;65.64
43488;BME280;29078;41.932;25.554;2024-01-07T09:43:44;97850.13;;;14.50;65.61
43488;BME280;29078;41.932;25.554;2024-01-07T09:46:09;97839.50;;;14.50;65.00
43488;BME280;29078;41.932;25.554;2024-01-07T09:48:34;97838.44;;;14.51;64.50
43488;BME280;29078;41.932;25.554;2024-01-07T09:51:00;97845.94;;;14.54;64.41
43488;BME280;29078;41.932;25.554;2024-01-07T09:53:25;97846.81;;;14.60;64.75
43488;BME280;29078;41.932;25.554;2024-01-07T09:58:23;97847.66;;;14.66;64.50
43488;BME280;29078;41.932;25.554;2024-01-07T10:00:48;97849.28;;;14.67;63.67
43488;BME280;29078;41.932;25.554;2024-01-07T10:03:14;97843.72;;;14.68;63.46
43488;BME280;29078;41.932;25.554;2024-01-07T10:05:39;97834.94;;;14.68;62.41
43488;BME280;29078;41.932;25.554;2024-01-07T10:08:05;97832.59;;;14.71;63.00
43488;BME280;29078;41.932;25.554;2024-01-07T10:10:30;97828.59;;;14.69;60.71
43488;BME280;29078;41.932;25.554;2024-01-07T10:12:55;97819.06;;;14.73;61.07
43488;BME280;29078;41.932;25.554;2024-01-07T10:15:22;97816.16;;;14.74;61.16
43488;BME280;29078;41.932;25.554;2024-01-07T10:17:47;97811.16;;;14.78;61.42
43488;BME280;29078;41.932;25.554;2024-01-07T10:20:13;97797.94;;;14.83;62.27
43488;BME280;29078;41.932;25.554;2024-01-07T10:22:38;97804.06;;;14.83;60.69
43488;BME280;29078;41.932;25.554;2024-01-07T10:25:04;97800.34;;;14.84;61.21
43488;BME280;29078;41.932;25.554;2024-01-07T10:27:29;97795.03;;;14.84;61.10
43488;BME280;29078;41.932;25.554;2024-01-07T10:29:58;97791.34;;;14.85;61.38
43488;BME280;29078;41.932;25.554;2024-01-07T10:32:23;97785.22;;;14.85;61.92
43488;BME280;29078;41.932;25.554;2024-01-07T10:34:49;97777.56;;;14.88;61.93
43488;BME280;29078;41.932;25.554;2024-01-07T10:37:16;97772.00;;;14.90;61.70
43488;BME280;29078;41.932;25.554;2024-01-07T10:39:41;97754.13;;;14.85;61.23
43488;BME280;29078;41.932;25.554;2024-01-07T10:42:06;97747.53;;;14.88;61.90
43488;BME280;29078;41.932;25.554;2024-01-07T10:44:33;97746.25;;;14.90;62.18
43488;BME280;29078;41.932;25.554;2024-01-07T10:46:58;97739.31;;;14.89;60.89
43488;BME280;29078;41.932;25.554;2024-01-07T10:49:24;97730.56;;;14.89;61.66
43488;BME280;29078;41.932;25.554;2024-01-07T10:51:54;97715.16;;;14.91;62.15
43488;BME280;29078;41.932;25.554;2024-01-07T10:54:21;97717.00;;;14.90;61.72
43488;BME280;29078;41.932;25.554;2024-01-07T10:56:48;97721.28;;;14.91;61.90
43488;BME280;29078;41.932;25.554;2024-01-07T10:59:15;97714.91;;;14.92;62.16
43488;BME280;29078;41.932;25.554;2024-01-07T11:01:40;97711.75;;;14.96;61.96
43488;BME280;29078;41.932;25.554;2024-01-07T11:09:14;97705.13;;;14.98;61.12
43488;BME280;29078;41.932;25.554;2024-01-07T11:11:43;97696.16;;;15.04;61.23
43488;BME280;29078;41.932;25.554;2024-01-07T11:16:52;97701.28;;;15.11;61.49
43488;BME280;29078;41.932;25.554;2024-01-07T11:19:19;97700.22;;;15.12;61.53
43488;BME280;29078;41.932;25.554;2024-01-07T11:21:45;97689.06;;;15.15;61.17
43488;BME280;29078;41.932;25.554;2024-01-07T11:24:29;97681.91;;;15.15;60.55
43488;BME280;29078;41.932;25.554;2024-01-07T11:27:01;97687.25;;;15.20;60.48
43488;BME280;29078;41.932;25.554;2024-01-07T11:29:26;97691.03;;;15.24;61.08
43488;BME280;29078;41.932;25.554;2024-01-07T11:31:51;97697.69;;;15.27;59.98
43488;BME280;29078;41.932;25.554;2024-01-07T11:37:00;97700.44;;;15.37;60.51
43488;BME280;29078;41.932;25.554;2024-01-07T11:39:26;97708.16;;;15.39;58.35
43488;BME280;29078;41.932;25.554;2024-01-07T11:41:51;97701.22;;;15.38;59.28
43488;BME280;29078;41.932;25.554;2024-01-07T11:44:17;97696.72;;;15.38;59.48
43488;BME280;29078;41.932;25.554;2024-01-07T11:46:42;97702.59;;;15.40;59.96
43488;BME280;29078;41.932;25.554;2024-01-07T11:49:08;97694.06;;;15.38;59.42
43488;BME280;29078;41.932;25.554;2024-01-07T11:51:33;97693.50;;;15.36;58.99
43488;BME280;29078;41.932;25.554;2024-01-07T11:54:00;97689.75;;;15.32;57.53
43488;BME280;29078;41.932;25.554;2024-01-07T11:56:25;97679.38;;;15.31;58.04
43488;BME280;29078;41.932;25.554;2024-01-07T11:58:51;97686.00;;;15.28;57.15
43488;BME280;29078;41.932;25.554;2024-01-07T12:01:17;97677.72;;;15.24;57.97
43488;BME280;29078;41.932;25.554;2024-01-07T12:03:45;97675.88;;;15.25;58.40
43488;BME280;29078;41.932;25.554;2024-01-07T12:06:11;97672.91;;;15.21;58.22
43488;BME280;29078;41.932;25.554;2024-01-07T12:08:40;97667.31;;;15.18;58.71
43488;BME280;29078;41.932;25.554;2024-01-07T12:11:06;97670.47;;;15.15;58.84
43488;BME280;29078;41.932;25.554;2024-01-07T12:13:31;97662.19;;;15.11;58.80
43488;BME280;29078;41.932;25.554;2024-01-07T12:15:57;97667.75;;;15.10;58.69
43488;BME280;29078;41.932;25.554;2024-01-07T12:18:22;97664.25;;;15.04;58.33
43488;BME280;29078;41.932;25.554;2024-01-07T12:20:56;97667.16;;;15.03;58.69
43488;BME280;29078;41.932;25.554;2024-01-07T12:23:22;97674.84;;;14.99;59.30
43488;BME280;29078;41.932;25.554;2024-01-07T12:25:47;97679.34;;;14.99;59.19
43488;BME280;29078;41.932;25.554;2024-01-07T12:28:16;97665.28;;;14.98;59.22
43488;BME280;29078;41.932;25.554;2024-01-07T12:30:41;97675.34;;;14.96;58.92
43488;BME280;29078;41.932;25.554;2024-01-07T12:33:07;97678.25;;;14.94;58.91
43488;BME280;29078;41.932;25.554;2024-01-07T12:35:32;97685.97;;;14.96;59.63
43488;BME280;29078;41.932;25.554;2024-01-07T12:37:59;97684.38;;;14.95;60.08
43488;BME280;29078;41.932;25.554;2024-01-07T12:40:24;97683.81;;;14.93;59.03
43488;BME280;29078;41.932;25.554;2024-01-07T12:42:52;97682.53;;;14.96;59.67
43488;BME280;29078;41.932;25.554;2024-01-07T12:45:17;97687.28;;;14.93;59.26
43488;BME280;29078;41.932;25.554;2024-01-07T12:47:42;97681.41;;;14.91;59.53
43488;BME280;29078;41.932;25.554;2024-01-07T12:50:08;97688.59;;;14.91;59.89
43488;BME280;29078;41.932;25.554;2024-01-07T12:52:36;97691.78;;;14.93;60.07
43488;BME280;29078;41.932;25.554;2024-01-07T12:55:02;97690.19;;;14.92;59.65